sensor_id;sensor_type;location;lat;lon;timestamp;pressure;altitude;pressure_sealevel;temperature;humidity
56270;BME280;42176;43.240;27.880;2023-04-15T00:02:14;99500.28;;;13.96;78.11
56270;BME280;42176;43.240;27.880;2023-04-15T00:04:39;99521.03;;;14.08;77.00
56270;BME280;42176;43.240;27.880;2023-04-15T00:07:05;99520.88;;;14.11;76.51
56270;BME280;42176;43.240;27.880;2023-04-15T00:09:30;99514.97;;;14.24;76.55
56270;BME280;42176;43.240;27.880;2023-04-15T00:11:56;99505.75;;;14.31;76.52
56270;BME280;42176;43.240;27.880;2023-04-15T00:14:21;99519.50;;;14.41;75.44
56270;BME280;42176;43.240;27.880;2023-04-15T00:16:47;99516.44;;;14.31;75.39
56270;BME280;42176;43.240;27.880;2023-04-15T00:19:19;99521.44;;;14.37;75.46
56270;BME280;42176;43.240;27.880;2023-04-15T00:21:44;99522.59;;;14.51;75.28
56270;BME280;42176;43.240;27.880;2023-04-15T00:24:10;99521.13;;;14.62;75.15
56270;BME280;42176;43.240;27.880;2023-04-15T00:26:36;99510.13;;;14.70;74.10
56270;BME280;42176;43.240;27.880;2023-04-15T00:29:01;99521.59;;;14.72;73.33
56270;BME280;42176;43.240;27.880;2023-04-15T00:31:27;99514.25;;;14.77;72.58
56270;BME280;42176;43.240;27.880;2023-04-15T00:33:52;99530.81;;;14.84;72.17
56270;BME280;42176;43.240;27.880;2023-04-15T00:36:17;99535.91;;;14.89;73.90
56270;BME280;42176;43.240;27.880;2023-04-15T00:38:43;99531.34;;;14.91;74.22
56270;BME280;42176;43.240;27.880;2023-04-15T00:41:09;99536.69;;;14.91;74.20
56270;BME280;42176;43.240;27.880;2023-04-15T00:43:35;99528.94;;;14.86;75.02
56270;BME280;42176;43.240;27.880;2023-04-15T00:46:03;99529.78;;;14.87;74.71
56270;BME280;42176;43.240;27.880;2023-04-15T00:48:30;99537.00;;;14.85;74.24
56270;BME280;42176;43.240;27.880;2023-04-15T00:50:56;99539.31;;;14.73;72.58
56270;BME280;42176;43.240;27.880;2023-04-15T00:53:22;99534.69;;;14.58;72.48
56270;BME280;42176;43.240;27.880;2023-04-15T00:55:48;99548.25;;;14.72;73.92
56270;BME280;42176;43.240;27.880;2023-04-15T00:58:13;99545.94;;;14.65;73.27
56270;BME280;42176;43.240;27.880;2023-04-15T01:00:41;99556.78;;;14.42;73.52
56270;BME280;42176;43.240;27.880;2023-04-15T01:03:06;99548.13;;;14.37;74.06
56270;BME280;42176;43.240;27.880;2023-04-15T01:05:32;99546.75;;;14.48;73.60
56270;BME280;42176;43.240;27.880;2023-04-15T01:07:58;99538.91;;;14.44;73.52
56270;BME280;42176;43.240;27.880;2023-04-15T01:10:24;99539.63;;;14.48;74.05
56270;BME280;42176;43.240;27.880;2023-04-15T01:12:49;99542.47;;;14.62;74.00
56270;BME280;42176;43.240;27.880;2023-04-15T01:15:15;99531.09;;;14.59;73.01
56270;BME280;42176;43.240;27.880;2023-04-15T01:17:41;99532.97;;;14.76;72.52
56270;BME280;42176;43.240;27.880;2023-04-15T01:20:07;99517.53;;;14.83;71.93
56270;BME280;42176;43.240;27.880;2023-04-15T01:22:34;99527.56;;;14.95;71.64
56270;BME280;42176;43.240;27.880;2023-04-15T01:25:05;99532.16;;;14.93;71.32
56270;BME280;42176;43.240;27.880;2023-04-15T01:27:33;99533.94;;;14.92;71.00
56270;BME280;42176;43.240;27.880;2023-04-15T01:30:00;99533.66;;;14.99;71.20
56270;BME280;42176;43.240;27.880;2023-04-15T01:32:25;99528.53;;;15.12;70.52
56270;BME280;42176;43.240;27.880;2023-04-15T01:34:51;99535.31;;;15.19;70.96
56270;BME280;42176;43.240;27.880;2023-04-15T01:37:16;99533.28;;;15.24;71.74
56270;BME280;42176;43.240;27.880;2023-04-15T01:39:42;99522.75;;;15.21;71.04
56270;BME280;42176;43.240;27.880;2023-04-15T01:42:08;99524.31;;;15.25;70.52
56270;BME280;42176;43.240;27.880;2023-04-15T01:44:34;99534.81;;;15.11;70.88
56270;BME280;42176;43.240;27.880;2023-04-15T01:46:59;99523.38;;;15.09;72.91
56270;BME280;42176;43.240;27.880;2023-04-15T01:49:25;99523.53;;;15.05;73.21
56270;BME280;42176;43.240;27.880;2023-04-15T01:51:50;99534.13;;;14.70;73.53
56270;BME280;42176;43.240;27.880;2023-04-15T01:54:15;99535.19;;;14.66;74.27
56270;BME280;42176;43.240;27.880;2023-04-15T01:56:41;99519.56;;;14.77;73.81
56270;BME280;42176;43.240;27.880;2023-04-15T01:59:07;99530.34;;;14.94;73.77
56270;BME280;42176;43.240;27.880;2023-04-15T02:01:32;99528.06;;;15.03;75.39
56270;BME280;42176;43.240;27.880;2023-04-15T02:03:58;99511.13;;;15.04;75.10
56270;BME280;42176;43.240;27.880;2023-04-15T02:06:23;99534.66;;;15.14;74.52
56270;BME280;42176;43.240;27.880;2023-04-15T02:08:49;99533.66;;;15.16;73.65
56270;BME280;42176;43.240;27.880;2023-04-15T02:11:15;99529.97;;;15.19;75.46
56270;BME280;42176;43.240;27.880;2023-04-15T02:13:40;99531.69;;;15.20;74.95
56270;BME280;42176;43.240;27.880;2023-04-15T02:16:15;99515.19;;;15.12;74.88
56270;BME280;42176;43.240;27.880;2023-04-15T02:18:42;99536.25;;;15.18;75.54
56270;BME280;42176;43.240;27.880;2023-04-15T02:21:08;99529.97;;;15.19;76.17
56270;BME280;42176;43.240;27.880;2023-04-15T02:23:33;99537.19;;;15.17;76.44
56270;BME280;42176;43.240;27.880;2023-04-15T02:25:58;99547.88;;;15.17;75.28
56270;BME280;42176;43.240;27.880;2023-04-15T02:28:24;99541.69;;;15.16;74.72
56270;BME280;42176;43.240;27.880;2023-04-15T02:30:50;99542.38;;;15.20;74.58
56270;BME280;42176;43.240;27.880;2023-04-15T02:33:16;99539.56;;;15.23;75.72
56270;BME280;42176;43.240;27.880;2023-04-15T02:35:42;99535.00;;;15.25;77.78
56270;BME280;42176;43.240;27.880;2023-04-15T02:38:09;99529.81;;;15.22;76.88
56270;BME280;42176;43.240;27.880;2023-04-15T02:40:35;99530.75;;;15.21;77.39
56270;BME280;42176;43.240;27.880;2023-04-15T02:43:01;99530.06;;;15.17;77.63
56270;BME280;42176;43.240;27.880;2023-04-15T02:45:27;99530.13;;;15.16;78.38
56270;BME280;42176;43.240;27.880;2023-04-15T02:47:53;99530.25;;;15.13;78.84
56270;BME280;42176;43.240;27.880;2023-04-15T02:50:19;99532.94;;;15.13;78.85
56270;BME280;42176;43.240;27.880;2023-04-15T02:52:45;99521.41;;;15.12;78.93
56270;BME280;42176;43.240;27.880;2023-04-15T02:55:10;99524.31;;;15.07;79.24
56270;BME280;42176;43.240;27.880;2023-04-15T02:57:37;99522.19;;;14.97;78.96
56270;BME280;42176;43.240;27.880;2023-04-15T03:00:04;99533.38;;;14.86;78.28
56270;BME280;42176;43.240;27.880;2023-04-15T03:02:36;99550.13;;;14.70;78.89
56270;BME280;42176;43.240;27.880;2023-04-15T03:05:02;99552.81;;;14.70;79.39
56270;BME280;42176;43.240;27.880;2023-04-15T03:07:28;99542.06;;;14.72;80.29
56270;BME280;42176;43.240;27.880;2023-04-15T03:09:54;99557.63;;;14.81;81.35
56270;BME280;42176;43.240;27.880;2023-04-15T03:12:19;99538.91;;;14.44;80.78
56270;BME280;42176;43.240;27.880;2023-04-15T03:14:45;99546.22;;;14.58;81.09
56270;BME280;42176;43.240;27.880;2023-04-15T03:17:10;99541.44;;;14.65;80.78
56270;BME280;42176;43.240;27.880;2023-04-15T03:19:36;99538.25;;;14.39;81.88
56270;BME280;42176;43.240;27.880;2023-04-15T03:22:01;99542.78;;;14.37;82.46
56270;BME280;42176;43.240;27.880;2023-04-15T03:24:27;99537.75;;;14.31;82.95
56270;BME280;42176;43.240;27.880;2023-04-15T03:26:54;99540.84;;;14.22;84.24
56270;BME280;42176;43.240;27.880;2023-04-15T03:29:20;99543.38;;;14.25;84.32
56270;BME280;42176;43.240;27.880;2023-04-15T03:31:45;99541.63;;;14.24;84.98
56270;BME280;42176;43.240;27.880;2023-04-15T03:34:11;99527.38;;;14.25;84.79
56270;BME280;42176;43.240;27.880;2023-04-15T03:36:36;99513.25;;;14.23;84.97
56270;BME280;42176;43.240;27.880;2023-04-15T03:39:02;99527.34;;;14.44;84.86
56270;BME280;42176;43.240;27.880;2023-04-15T03:41:28;99518.31;;;14.29;85.31
56270;BME280;42176;43.240;27.880;2023-04-15T03:43:53;99533.56;;;14.44;85.11
56270;BME280;42176;43.240;27.880;2023-04-15T03:46:19;99512.38;;;14.41;85.20
56270;BME280;42176;43.240;27.880;2023-04-15T03:48:46;99538.44;;;14.54;84.61
56270;BME280;42176;43.240;27.880;2023-04-15T03:51:11;99539.72;;;14.64;83.86
56270;BME280;42176;43.240;27.880;2023-04-15T03:53:36;99536.91;;;14.67;83.26
56270;BME280;42176;43.240;27.880;2023-04-15T03:56:02;99537.00;;;14.85;83.43
56270;BME280;42176;43.240;27.880;2023-04-15T03:58:27;99538.84;;;15.02;83.15
56270;BME280;42176;43.240;27.880;2023-04-15T04:00:53;99550.38;;;15.20;81.10
56270;BME280;42176;43.240;27.880;2023-04-15T04:03:19;99546.44;;;15.27;80.04
56270;BME280;42176;43.240;27.880;2023-04-15T04:05:44;99553.13;;;15.36;78.96
56270;BME280;42176;43.240;27.880;2023-04-15T04:08:10;99546.59;;;15.42;78.96
56270;BME280;42176;43.240;27.880;2023-04-15T04:10:38;99551.78;;;15.45;79.41
56270;BME280;42176;43.240;27.880;2023-04-15T04:13:04;99533.50;;;15.37;76.92
56270;BME280;42176;43.240;27.880;2023-04-15T04:15:29;99538.84;;;15.02;78.16
56270;BME280;42176;43.240;27.880;2023-04-15T04:17:55;99545.94;;;14.84;78.45
56270;BME280;42176;43.240;27.880;2023-04-15T04:20:20;99539.09;;;14.59;80.92
56270;BME280;42176;43.240;27.880;2023-04-15T04:22:46;99548.31;;;14.52;81.49
56270;BME280;42176;43.240;27.880;2023-04-15T04:25:11;99553.88;;;14.47;81.32
56270;BME280;42176;43.240;27.880;2023-04-15T04:27:37;99548.25;;;14.34;82.38
56270;BME280;42176;43.240;27.880;2023-04-15T04:30:04;99548.06;;;14.39;81.64
56270;BME280;42176;43.240;27.880;2023-04-15T04:32:29;99564.03;;;14.58;81.29
56270;BME280;42176;43.240;27.880;2023-04-15T04:34:55;99573.47;;;14.65;80.27
56270;BME280;42176;43.240;27.880;2023-04-15T04:37:20;99562.78;;;14.65;79.74
56270;BME280;42176;43.240;27.880;2023-04-15T04:39:47;99559.78;;;14.54;80.05
56270;BME280;42176;43.240;27.880;2023-04-15T04:42:12;99564.84;;;14.60;80.83
56270;BME280;42176;43.240;27.880;2023-04-15T04:44:38;99563.69;;;14.46;81.54
56270;BME280;42176;43.240;27.880;2023-04-15T04:47:03;99564.25;;;14.34;82.58
56270;BME280;42176;43.240;27.880;2023-04-15T04:49:29;99569.22;;;14.23;83.44
56270;BME280;42176;43.240;27.880;2023-04-15T04:51:54;99562.28;;;14.19;84.61
56270;BME280;42176;43.240;27.880;2023-04-15T04:54:20;99565.25;;;14.12;85.21
56270;BME280;42176;43.240;27.880;2023-04-15T04:56:46;99572.94;;;13.99;86.18
56270;BME280;42176;43.240;27.880;2023-04-15T04:59:11;99552.41;;;13.82;87.68
56270;BME280;42176;43.240;27.880;2023-04-15T05:01:37;99560.44;;;13.81;88.77
56270;BME280;42176;43.240;27.880;2023-04-15T05:04:03;99564.25;;;13.75;89.23
56270;BME280;42176;43.240;27.880;2023-04-15T05:06:29;99551.22;;;13.69;90.25
56270;BME280;42176;43.240;27.880;2023-04-15T05:08:55;99562.25;;;13.80;89.93
56270;BME280;42176;43.240;27.880;2023-04-15T05:11:21;99557.31;;;13.92;89.39
56270;BME280;42176;43.240;27.880;2023-04-15T05:13:46;99562.59;;;14.12;88.40
56270;BME280;42176;43.240;27.880;2023-04-15T05:16:11;99560.56;;;14.18;87.82
56270;BME280;42176;43.240;27.880;2023-04-15T05:18:37;99567.41;;;14.04;88.38
56270;BME280;42176;43.240;27.880;2023-04-15T05:21:03;99565.53;;;14.25;88.38
56270;BME280;42176;43.240;27.880;2023-04-15T05:23:28;99561.09;;;14.26;87.89
56270;BME280;42176;43.240;27.880;2023-04-15T05:25:53;99561.38;;;14.20;87.77
56270;BME280;42176;43.240;27.880;2023-04-15T05:28:19;99562.28;;;14.19;88.23
56270;BME280;42176;43.240;27.880;2023-04-15T05:30:45;99549.88;;;13.98;89.12
56270;BME280;42176;43.240;27.880;2023-04-15T05:33:11;99572.19;;;14.16;88.60
56270;BME280;42176;43.240;27.880;2023-04-15T05:35:36;99571.75;;;14.26;88.19
56270;BME280;42176;43.240;27.880;2023-04-15T05:38:02;99570.16;;;14.22;87.55
56270;BME280;42176;43.240;27.880;2023-04-15T05:40:28;99555.53;;;14.11;88.10
56270;BME280;42176;43.240;27.880;2023-04-15T05:42:55;99575.78;;;14.15;89.28
56270;BME280;42176;43.240;27.880;2023-04-15T05:45:20;99573.75;;;14.21;88.31
56270;BME280;42176;43.240;27.880;2023-04-15T05:47:46;99584.06;;;14.09;88.75
56270;BME280;42176;43.240;27.880;2023-04-15T05:50:11;99590.06;;;14.34;88.41
56270;BME280;42176;43.240;27.880;2023-04-15T05:52:37;99605.44;;;14.48;87.80
56270;BME280;42176;43.240;27.880;2023-04-15T05:55:02;99614.72;;;14.58;87.87
56270;BME280;42176;43.240;27.880;2023-04-15T05:57:28;99624.81;;;14.51;88.74
56270;BME280;42176;43.240;27.880;2023-04-15T05:59:53;99634.19;;;14.60;88.79
56270;BME280;42176;43.240;27.880;2023-04-15T06:02:21;99643.91;;;14.61;88.85
56270;BME280;42176;43.240;27.880;2023-04-15T06:04:46;99644.84;;;14.60;88.39
56270;BME280;42176;43.240;27.880;2023-04-15T06:07:12;99638.94;;;14.53;89.03
56270;BME280;42176;43.240;27.880;2023-04-15T06:09:38;99657.97;;;14.45;90.73
56270;BME280;42176;43.240;27.880;2023-04-15T06:12:03;99673.97;;;14.45;92.43
56270;BME280;42176;43.240;27.880;2023-04-15T06:14:31;99673.56;;;14.34;94.07
56270;BME280;42176;43.240;27.880;2023-04-15T06:16:56;99665.06;;;14.26;97.69
56270;BME280;42176;43.240;27.880;2023-04-15T06:19:22;99666.19;;;14.20;99.91
56270;BME280;42176;43.240;27.880;2023-04-15T06:21:47;99660.16;;;14.16;100.00
56270;BME280;42176;43.240;27.880;2023-04-15T06:24:13;99672.38;;;14.21;100.00
56270;BME280;42176;43.240;27.880;2023-04-15T06:26:38;99660.78;;;14.22;100.00
56270;BME280;42176;43.240;27.880;2023-04-15T06:29:03;99677.06;;;14.15;100.00
56270;BME280;42176;43.240;27.880;2023-04-15T06:31:29;99672.13;;;14.06;100.00
56270;BME280;42176;43.240;27.880;2023-04-15T06:33:54;99679.16;;;14.09;100.00
56270;BME280;42176;43.240;27.880;2023-04-15T06:36:20;99663.19;;;14.07;100.00
56270;BME280;42176;43.240;27.880;2023-04-15T06:38:46;99669.72;;;14.21;100.00
56270;BME280;42176;43.240;27.880;2023-04-15T06:41:11;99677.59;;;14.24;100.00
56270;BME280;42176;43.240;27.880;2023-04-15T06:43:37;99665.84;;;14.28;100.00
56270;BME280;42176;43.240;27.880;2023-04-15T06:46:03;99660.09;;;14.37;100.00
56270;BME280;42176;43.240;27.880;2023-04-15T06:48:28;99667.28;;;14.35;100.00
56270;BME280;42176;43.240;27.880;2023-04-15T06:50:54;99660.47;;;14.49;100.00
56270;BME280;42176;43.240;27.880;2023-04-15T06:53:19;99648.47;;;14.59;100.00
56270;BME280;42176;43.240;27.880;2023-04-15T06:55:46;99669.31;;;14.89;100.00
56270;BME280;42176;43.240;27.880;2023-04-15T06:58:11;99674.28;;;15.16;99.17
56270;BME280;42176;43.240;27.880;2023-04-15T07:00:37;99679.81;;;15.30;96.37
56270;BME280;42176;43.240;27.880;2023-04-15T07:03:03;99667.75;;;15.58;93.19
56270;BME280;42176;43.240;27.880;2023-04-15T07:05:29;99661.47;;;16.29;89.93
56270;BME280;42176;43.240;27.880;2023-04-15T07:07:55;99671.34;;;16.45;87.47
56270;BME280;42176;43.240;27.880;2023-04-15T07:10:21;99671.72;;;16.55;86.45
56270;BME280;42176;43.240;27.880;2023-04-15T07:12:47;99693.97;;;16.55;85.58
56270;BME280;42176;43.240;27.880;2023-04-15T07:15:13;99702.44;;;16.64;85.76
56270;BME280;42176;43.240;27.880;2023-04-15T07:17:40;99703.56;;;16.59;82.25
56270;BME280;42176;43.240;27.880;2023-04-15T07:20:07;99708.06;;;16.75;81.72
56270;BME280;42176;43.240;27.880;2023-04-15T07:22:33;99704.34;;;16.78;79.75
56270;BME280;42176;43.240;27.880;2023-04-15T07:24:59;99701.31;;;16.68;79.58
56270;BME280;42176;43.240;27.880;2023-04-15T07:27:24;99699.31;;;16.55;81.74
56270;BME280;42176;43.240;27.880;2023-04-15T07:29:50;99699.97;;;16.43;83.81
56270;BME280;42176;43.240;27.880;2023-04-15T07:32:16;99707.38;;;16.38;86.87
56270;BME280;42176;43.240;27.880;2023-04-15T07:34:42;99704.09;;;16.33;87.07
56270;BME280;42176;43.240;27.880;2023-04-15T07:37:08;99697.75;;;16.51;86.69
56270;BME280;42176;43.240;27.880;2023-04-15T07:39:34;99694.25;;;17.00;85.04
56270;BME280;42176;43.240;27.880;2023-04-15T07:41:59;99688.72;;;18.27;77.10
56270;BME280;42176;43.240;27.880;2023-04-15T07:44:25;99687.19;;;18.66;71.71
56270;BME280;42176;43.240;27.880;2023-04-15T07:46:51;99696.97;;;19.66;65.83
56270;BME280;42176;43.240;27.880;2023-04-15T07:49:16;99697.22;;;19.48;64.91
56270;BME280;42176;43.240;27.880;2023-04-15T07:51:43;99689.19;;;19.33;61.73
56270;BME280;42176;43.240;27.880;2023-04-15T07:54:09;99695.88;;;19.13;61.89
56270;BME280;42176;43.240;27.880;2023-04-15T07:56:34;99701.91;;;19.17;62.28
56270;BME280;42176;43.240;27.880;2023-04-15T07:59:00;99694.66;;;18.90;62.01
56270;BME280;42176;43.240;27.880;2023-04-15T08:01:26;99690.06;;;19.07;60.29
56270;BME280;42176;43.240;27.880;2023-04-15T08:03:52;99692.75;;;18.78;60.47
56270;BME280;42176;43.240;27.880;2023-04-15T08:06:17;99696.41;;;18.62;61.50
56270;BME280;42176;43.240;27.880;2023-04-15T08:08:43;99701.94;;;18.74;62.42
56270;BME280;42176;43.240;27.880;2023-04-15T08:11:08;99700.91;;;18.91;63.88
56270;BME280;42176;43.240;27.880;2023-04-15T08:13:34;99702.81;;;18.89;61.61
56270;BME280;42176;43.240;27.880;2023-04-15T08:16:19;99697.72;;;18.69;61.67
56270;BME280;42176;43.240;27.880;2023-04-15T08:18:48;99706.00;;;18.52;61.90
56270;BME280;42176;43.240;27.880;2023-04-15T08:21:15;99708.94;;;18.47;63.69
56270;BME280;42176;43.240;27.880;2023-04-15T08:23:40;99709.16;;;18.44;64.55
56270;BME280;42176;43.240;27.880;2023-04-15T08:26:07;99694.47;;;18.35;66.42
56270;BME280;42176;43.240;27.880;2023-04-15T08:28:33;99681.25;;;18.47;64.84
56270;BME280;42176;43.240;27.880;2023-04-15T08:30:58;99683.38;;;18.99;62.29
56270;BME280;42176;43.240;27.880;2023-04-15T08:33:24;99674.75;;;19.49;60.66
56270;BME280;42176;43.240;27.880;2023-04-15T08:35:50;99689.41;;;19.58;61.14
56270;BME280;42176;43.240;27.880;2023-04-15T08:38:15;99679.94;;;19.52;60.70
56270;BME280;42176;43.240;27.880;2023-04-15T08:40:43;99689.38;;;19.45;61.05
56270;BME280;42176;43.240;27.880;2023-04-15T08:43:11;99688.25;;;19.35;60.64
56270;BME280;42176;43.240;27.880;2023-04-15T08:45:40;99699.03;;;19.20;60.22
56270;BME280;42176;43.240;27.880;2023-04-15T08:48:08;99708.25;;;19.16;61.54
56270;BME280;42176;43.240;27.880;2023-04-15T08:50:38;99696.47;;;19.46;61.50
56270;BME280;42176;43.240;27.880;2023-04-15T08:53:03;99698.28;;;19.86;59.77
56270;BME280;42176;43.240;27.880;2023-04-15T08:55:32;99701.94;;;20.12;58.29
56270;BME280;42176;43.240;27.880;2023-04-15T08:58:00;99710.75;;;20.14;57.64
56270;BME280;42176;43.240;27.880;2023-04-15T09:00:27;99713.91;;;20.60;58.15
56270;BME280;42176;43.240;27.880;2023-04-15T09:02:54;99716.63;;;20.86;55.00
56270;BME280;42176;43.240;27.880;2023-04-15T09:05:21;99709.16;;;20.63;55.43
56270;BME280;42176;43.240;27.880;2023-04-15T09:07:47;99705.81;;;20.21;56.98
56270;BME280;42176;43.240;27.880;2023-04-15T09:10:14;99703.00;;;19.69;58.23
56270;BME280;42176;43.240;27.880;2023-04-15T09:12:40;99699.59;;;19.25;60.13
56270;BME280;42176;43.240;27.880;2023-04-15T09:15:07;99695.84;;;19.28;61.19
56270;BME280;42176;43.240;27.880;2023-04-15T09:17:41;99700.72;;;19.36;61.22
56270;BME280;42176;43.240;27.880;2023-04-15T09:20:11;99713.97;;;19.39;61.91
56270;BME280;42176;43.240;27.880;2023-04-15T09:22:40;99712.81;;;19.43;62.33
56270;BME280;42176;43.240;27.880;2023-04-15T09:25:27;99722.53;;;19.58;61.36
56270;BME280;42176;43.240;27.880;2023-04-15T09:30:20;99709.94;;;19.86;59.10
56270;BME280;42176;43.240;27.880;2023-04-15T09:32:53;99718.31;;;19.82;60.14
56270;BME280;42176;43.240;27.880;2023-04-15T09:35:20;99699.56;;;19.67;60.54
56270;BME280;42176;43.240;27.880;2023-04-15T09:37:47;99710.81;;;19.59;62.12
56270;BME280;42176;43.240;27.880;2023-04-15T09:40:12;99707.31;;;19.72;60.69
56270;BME280;42176;43.240;27.880;2023-04-15T09:42:56;99704.81;;;20.09;58.05
56270;BME280;42176;43.240;27.880;2023-04-15T09:45:22;99696.75;;;20.09;58.23
56270;BME280;42176;43.240;27.880;2023-04-15T09:47:48;99701.41;;;20.07;60.36
56270;BME280;42176;43.240;27.880;2023-04-15T09:50:17;99716.69;;;20.32;58.20
56270;BME280;42176;43.240;27.880;2023-04-15T09:52:43;99711.09;;;20.22;57.16
56270;BME280;42176;43.240;27.880;2023-04-15T09:55:09;99716.06;;;20.16;56.72
56270;BME280;42176;43.240;27.880;2023-04-15T09:57:36;99711.84;;;20.37;56.16
56270;BME280;42176;43.240;27.880;2023-04-15T10:00:07;99727.06;;;20.51;54.68
56270;BME280;42176;43.240;27.880;2023-04-15T10:02:34;99721.78;;;20.37;53.56
56270;BME280;42176;43.240;27.880;2023-04-15T10:05:01;99723.81;;;20.20;54.37
56270;BME280;42176;43.240;27.880;2023-04-15T10:07:27;99717.00;;;20.02;55.32
56270;BME280;42176;43.240;27.880;2023-04-15T10:09:54;99708.72;;;20.05;55.93
56270;BME280;42176;43.240;27.880;2023-04-15T10:12:21;99716.59;;;20.08;56.74
56270;BME280;42176;43.240;27.880;2023-04-15T10:14:58;99715.25;;;20.01;58.12
56270;BME280;42176;43.240;27.880;2023-04-15T10:17:26;99708.03;;;20.01;57.43
56270;BME280;42176;43.240;27.880;2023-04-15T10:19:53;99719.47;;;20.18;57.03
56270;BME280;42176;43.240;27.880;2023-04-15T10:22:21;99706.59;;;20.36;55.82
56270;BME280;42176;43.240;27.880;2023-04-15T10:24:47;99712.16;;;20.59;55.68
56270;BME280;42176;43.240;27.880;2023-04-15T10:27:13;99705.94;;;20.84;55.39
56270;BME280;42176;43.240;27.880;2023-04-15T10:29:38;99711.09;;;20.87;53.48
56270;BME280;42176;43.240;27.880;2023-04-15T10:32:05;99707.88;;;20.69;52.10
56270;BME280;42176;43.240;27.880;2023-04-15T10:34:31;99685.38;;;20.57;52.74
56270;BME280;42176;43.240;27.880;2023-04-15T10:37:00;99701.84;;;20.78;52.11
56270;BME280;42176;43.240;27.880;2023-04-15T10:42:13;99708.50;;;20.98;51.82
56270;BME280;42176;43.240;27.880;2023-04-15T10:47:14;99693.00;;;20.63;52.33
56270;BME280;42176;43.240;27.880;2023-04-15T10:49:48;99705.16;;;20.17;52.99
56270;BME280;42176;43.240;27.880;2023-04-15T10:52:16;99700.63;;;20.18;52.54
56270;BME280;42176;43.240;27.880;2023-04-15T10:54:42;99691.94;;;20.14;54.42
56270;BME280;42176;43.240;27.880;2023-04-15T10:57:13;99705.06;;;20.06;53.65
56270;BME280;42176;43.240;27.880;2023-04-15T11:02:38;99698.75;;;19.52;54.34
56270;BME280;42176;43.240;27.880;2023-04-15T11:05:04;99693.22;;;19.41;54.51
56270;BME280;42176;43.240;27.880;2023-04-15T11:13:05;99705.56;;;19.16;55.59
56270;BME280;42176;43.240;27.880;2023-04-15T11:15:41;99704.25;;;19.09;57.39
56270;BME280;42176;43.240;27.880;2023-04-15T11:18:17;99700.03;;;18.90;58.27
56270;BME280;42176;43.240;27.880;2023-04-15T11:21:00;99691.13;;;18.75;59.33
56270;BME280;42176;43.240;27.880;2023-04-15T11:26:00;99709.22;;;18.86;58.77
56270;BME280;42176;43.240;27.880;2023-04-15T11:28:28;99715.47;;;18.86;60.04
56270;BME280;42176;43.240;27.880;2023-04-15T11:30:54;99691.78;;;18.79;59.57
56270;BME280;42176;43.240;27.880;2023-04-15T11:33:20;99705.97;;;18.81;59.46
56270;BME280;42176;43.240;27.880;2023-04-15T11:35:47;99703.31;;;18.95;60.90
56270;BME280;42176;43.240;27.880;2023-04-15T11:38:13;99695.81;;;19.00;60.26
56270;BME280;42176;43.240;27.880;2023-04-15T11:40:41;99702.72;;;19.05;59.00
56270;BME280;42176;43.240;27.880;2023-04-15T11:45:56;99699.06;;;19.06;56.81
56270;BME280;42176;43.240;27.880;2023-04-15T11:48:24;99685.47;;;18.94;57.89
56270;BME280;42176;43.240;27.880;2023-04-15T11:50:55;99689.09;;;19.08;57.03
56270;BME280;42176;43.240;27.880;2023-04-15T11:53:22;99704.06;;;19.12;57.89
56270;BME280;42176;43.240;27.880;2023-04-15T11:55:50;99697.34;;;19.05;58.46
56270;BME280;42176;43.240;27.880;2023-04-15T11:58:18;99698.22;;;19.05;58.00
56270;BME280;42176;43.240;27.880;2023-04-15T12:00:55;99692.53;;;19.10;57.37
56270;BME280;42176;43.240;27.880;2023-04-15T12:03:36;99687.81;;;19.13;57.29
56270;BME280;42176;43.240;27.880;2023-04-15T12:06:15;99687.53;;;19.18;56.80
56270;BME280;42176;43.240;27.880;2023-04-15T12:09:06;99684.78;;;19.32;54.39
56270;BME280;42176;43.240;27.880;2023-04-15T12:11:37;99685.94;;;19.43;53.79
56270;BME280;42176;43.240;27.880;2023-04-15T12:16:49;99689.38;;;19.45;56.64
56270;BME280;42176;43.240;27.880;2023-04-15T12:19:19;99681.94;;;19.21;56.73
56270;BME280;42176;43.240;27.880;2023-04-15T12:21:48;99685.47;;;18.94;58.71
56270;BME280;42176;43.240;27.880;2023-04-15T12:24:14;99664.94;;;18.79;58.76
56270;BME280;42176;43.240;27.880;2023-04-15T12:26:43;99680.44;;;18.88;58.30
56270;BME280;42176;43.240;27.880;2023-04-15T12:29:11;99677.72;;;18.61;58.90
56270;BME280;42176;43.240;27.880;2023-04-15T12:31:55;99682.97;;;18.48;58.64
56270;BME280;42176;43.240;27.880;2023-04-15T12:34:33;99675.78;;;18.34;59.62
56270;BME280;42176;43.240;27.880;2023-04-15T12:37:01;99684.13;;;18.29;60.40
56270;BME280;42176;43.240;27.880;2023-04-15T12:39:29;99681.31;;;18.31;58.30
56270;BME280;42176;43.240;27.880;2023-04-15T12:41:56;99688.81;;;18.54;61.13
56270;BME280;42176;43.240;27.880;2023-04-15T12:44:22;99688.22;;;18.35;59.71
56270;BME280;42176;43.240;27.880;2023-04-15T12:46:48;99688.72;;;18.27;61.12
56270;BME280;42176;43.240;27.880;2023-04-15T12:49:14;99688.34;;;18.48;60.81
56270;BME280;42176;43.240;27.880;2023-04-15T12:51:41;99689.88;;;18.66;59.81
56270;BME280;42176;43.240;27.880;2023-04-15T12:54:06;99679.19;;;18.07;60.65
56270;BME280;42176;43.240;27.880;2023-04-15T12:56:32;99686.13;;;17.95;62.36
56270;BME280;42176;43.240;27.880;2023-04-15T12:58:57;99700.00;;;18.03;62.05
56270;BME280;42176;43.240;27.880;2023-04-15T13:01:23;99681.53;;;17.97;61.32
56270;BME280;42176;43.240;27.880;2023-04-15T13:03:48;99701.72;;;18.04;60.70
56270;BME280;42176;43.240;27.880;2023-04-15T13:06:15;99699.06;;;18.19;60.36
56270;BME280;42176;43.240;27.880;2023-04-15T13:08:41;99697.78;;;18.10;57.70
56270;BME280;42176;43.240;27.880;2023-04-15T13:11:07;99704.13;;;18.09;59.75
56270;BME280;42176;43.240;27.880;2023-04-15T13:13:33;99691.78;;;18.21;59.14